Aviation Digital Data Service (ADDS)

Output produced by METARs form (0121 UTC 01 December 2022)
found at http://aviationweather.gov/metar/data/
 
KSAF 302329Z 0100/0124 18007KT P6SM BKN200 
     FM010100 13009KT P6SM SCT200 
     FM011000 01011KT P6SM SKC 
     FM011800 22010G16KT P6SM BKN250